createdAt,value
2022-10-24T00:09:24.586Z,78.00
2022-10-24T00:19:30.029Z,78.00
2022-10-24T00:29:35.464Z,78.00
2022-10-24T00:39:40.906Z,78.00
2022-10-24T00:49:46.281Z,76.00
2022-10-24T00:59:52.682Z,70.00
2022-10-24T01:09:59.324Z,74.00
2022-10-24T01:20:05.334Z,70.00
2022-10-24T01:30:11.437Z,68.00
2022-10-24T01:40:19.315Z,82.00
2022-10-24T01:50:25.042Z,82.00
2022-10-24T02:00:31.514Z,70.00
2022-10-24T02:10:38.637Z,70.00
2022-10-24T02:20:45.469Z,70.00
2022-10-24T02:30:51.832Z,70.00
2022-10-24T02:40:57.744Z,70.00
2022-10-24T02:51:04.150Z,72.00
2022-10-24T03:01:11.760Z,78.00
2022-10-24T03:11:17.372Z,82.00
2022-10-24T03:21:23.797Z,70.00
2022-10-24T03:31:29.851Z,70.00
2022-10-24T03:41:37.439Z,84.00
2022-10-24T03:51:42.984Z,78.00
2022-10-24T04:01:49.417Z,76.00
2022-10-24T04:11:55.611Z,70.00
2022-10-24T04:22:01.995Z,70.00
2022-10-24T04:32:08.237Z,72.00
2022-10-24T04:42:14.565Z,74.00
2022-10-24T04:52:20.475Z,76.00
2022-10-24T05:02:27.051Z,76.00
2022-10-24T05:12:33.216Z,74.00
2022-10-24T05:22:39.229Z,70.00
2022-10-24T05:32:45.823Z,72.00
2022-10-24T05:42:52.592Z,76.00
2022-10-24T05:52:58.825Z,70.00
2022-10-24T06:03:05.938Z,78.00
2022-10-24T06:13:11.655Z,80.00
2022-10-24T06:23:17.683Z,78.00
2022-10-24T06:33:23.400Z,72.00
2022-10-24T06:43:29.073Z,76.00
2022-10-24T06:53:34.700Z,86.00
2022-10-24T07:03:40.042Z,86.00
2022-10-24T07:13:45.523Z,84.00
2022-10-24T07:23:51.239Z,78.00
2022-10-24T07:33:56.953Z,84.00
2022-10-24T07:44:02.789Z,82.00
2022-10-24T07:55:39.681Z,84.00
2022-10-24T08:05:44.528Z,84.00
2022-10-24T08:15:50.548Z,84.00
2022-10-24T08:25:56.054Z,82.00
2022-10-24T08:36:01.635Z,86.00
2022-10-24T08:46:07.444Z,84.00
2022-10-24T08:56:13.437Z,86.00
2022-10-24T09:06:18.836Z,86.00
2022-10-24T09:16:24.444Z,86.00
2022-10-24T09:26:30.291Z,84.00
2022-10-24T09:36:36.240Z,84.00
2022-10-24T09:46:41.690Z,84.00
2022-10-24T09:56:49.005Z,84.00
2022-10-24T10:06:57.899Z,82.00
2022-10-24T10:17:03.757Z,82.00
2022-10-24T10:27:09.663Z,82.00
2022-10-24T10:37:15.076Z,82.00
2022-10-24T10:47:23.864Z,86.00
2022-10-24T10:57:31.470Z,82.00
2022-10-24T11:07:37.661Z,86.00
2022-10-24T11:17:43.846Z,84.00
2022-10-24T11:27:49.827Z,84.00
2022-10-24T11:37:57.590Z,78.00
2022-10-24T11:48:03.099Z,84.00
2022-10-24T11:58:10.879Z,84.00
2022-10-24T12:08:16.326Z,78.00
2022-10-24T12:18:23.726Z,84.00
2022-10-24T12:28:28.982Z,78.00
2022-10-24T12:38:36.029Z,76.00
2022-10-24T12:48:41.643Z,76.00
2022-10-24T12:58:49.251Z,82.00
2022-10-24T13:08:55.065Z,84.00
2022-10-24T13:19:02.971Z,82.00
2022-10-24T13:29:09.052Z,80.00
2022-10-24T13:39:16.993Z,80.00
2022-10-24T13:49:23.077Z,76.00
2022-10-24T13:59:29.021Z,74.00
2022-10-24T14:09:35.221Z,78.00
2022-10-24T14:19:45.872Z,78.00
2022-10-24T14:29:52.547Z,72.00
2022-10-24T14:39:58.786Z,78.00
2022-10-24T14:50:05.017Z,74.00
2022-10-24T15:00:11.344Z,70.00
2022-10-24T15:10:17.467Z,78.00
2022-10-24T15:20:23.427Z,72.00
2022-10-24T15:30:29.563Z,76.00
2022-10-24T15:40:36.027Z,78.00
2022-10-24T15:50:42.196Z,72.00
2022-10-24T16:00:48.278Z,70.00
2022-10-24T16:10:55.873Z,74.00
2022-10-24T16:21:01.228Z,72.00
2022-10-24T16:31:07.581Z,74.00
2022-10-24T16:41:13.922Z,72.00
2022-10-24T16:51:21.411Z,72.00
2022-10-24T17:01:27.432Z,74.00
2022-10-24T17:11:51.317Z,76.00
2022-10-24T17:21:46.845Z,76.00
2022-10-24T17:31:54.834Z,72.00
2022-10-24T17:42:00.649Z,70.00
2022-10-24T17:52:08.381Z,72.00
2022-10-24T18:02:13.865Z,72.00
2022-10-24T18:12:21.267Z,78.00
2022-10-24T18:22:28.547Z,68.00
2022-10-24T18:32:36.192Z,72.00
2022-10-24T18:42:41.842Z,74.00
2022-10-24T18:52:49.943Z,72.00
2022-10-24T19:02:55.862Z,72.00
2022-10-24T19:13:03.322Z,72.00
2022-10-24T19:23:09.100Z,74.00
2022-10-24T19:33:16.909Z,76.00
2022-10-24T19:43:22.492Z,76.00
2022-10-24T19:53:30.223Z,72.00
2022-10-24T20:03:35.944Z,76.00
2022-10-24T20:13:43.265Z,74.00
2022-10-24T20:23:48.736Z,74.00
2022-10-24T20:33:56.532Z,76.00
2022-10-24T20:44:02.269Z,74.00
2022-10-24T20:54:09.729Z,72.00
2022-10-24T21:04:18.417Z,76.00
2022-10-24T21:14:27.663Z,74.00
2022-10-24T21:24:33.215Z,74.00
2022-10-24T21:34:41.502Z,74.00
2022-10-24T21:44:47.912Z,72.00
2022-10-24T21:54:55.420Z,76.00
2022-10-24T22:05:01.156Z,74.00
2022-10-24T22:15:09.148Z,74.00
2022-10-24T22:25:15.832Z,76.00
2022-10-24T22:35:23.410Z,72.00
2022-10-24T22:45:29.120Z,76.00
2022-10-24T22:55:36.738Z,72.00
2022-10-24T23:05:42.363Z,74.00
2022-10-24T23:15:50.034Z,72.00
2022-10-24T23:25:55.863Z,74.00
2022-10-24T23:36:03.690Z,74.00
2022-10-24T23:46:09.944Z,74.00
2022-10-24T23:56:17.896Z,72.00
